createdAt,value
2018-02-22T00:00:40.038Z,52.22
2018-02-22T00:03:06.325Z,52.09
2018-02-22T00:05:32.560Z,52.05
2018-02-22T00:07:58.731Z,52.02
2018-02-22T00:10:24.907Z,52.21
2018-02-22T00:12:51.255Z,52.06
2018-02-22T00:15:17.442Z,52.15
2018-02-22T00:17:43.669Z,52.25
2018-02-22T00:20:10.181Z,52.37
2018-02-22T00:22:36.369Z,52.37
2018-02-22T00:25:02.580Z,52.48
2018-02-22T00:27:28.744Z,52.56
2018-02-22T00:29:54.978Z,52.58
2018-02-22T00:32:21.426Z,52.69
2018-02-22T00:34:47.599Z,52.71
2018-02-22T00:37:13.872Z,52.87
2018-02-22T00:39:40.055Z,52.97
2018-02-22T00:42:06.254Z,52.93
2018-02-22T00:44:32.498Z,52.99
2018-02-22T00:46:58.658Z,52.93
2018-02-22T00:49:24.847Z,53.25
2018-02-22T00:51:51.102Z,53.21
2018-02-22T00:54:17.276Z,53.95
2018-02-22T00:56:43.516Z,53.73
2018-02-22T00:59:09.693Z,52.61
2018-02-22T01:01:35.947Z,52.73
2018-02-22T01:04:02.112Z,53.04
2018-02-22T01:06:28.322Z,52.98
2018-02-22T01:08:54.757Z,53.11
2018-02-22T01:11:20.929Z,53.06
2018-02-22T01:13:47.090Z,52.87
2018-02-22T01:16:13.362Z,52.22
2018-02-22T01:18:39.526Z,52.06
2018-02-22T01:21:05.821Z,52.05
2018-02-22T01:23:32.031Z,51.99
2018-02-22T01:25:58.228Z,51.94
2018-02-22T01:28:24.494Z,51.85
2018-02-22T01:30:50.677Z,51.92
2018-02-22T01:33:16.853Z,51.86
2018-02-22T01:35:43.075Z,51.96
2018-02-22T01:38:09.253Z,51.81
2018-02-22T01:40:35.437Z,51.88
2018-02-22T01:43:01.639Z,51.78
2018-02-22T01:45:27.879Z,51.75
2018-02-22T01:47:54.094Z,51.77
2018-02-22T01:50:20.294Z,51.70
2018-02-22T01:52:46.468Z,51.78
2018-02-22T01:55:12.688Z,51.66
2018-02-22T01:57:38.849Z,51.59
2018-02-22T02:00:05.058Z,51.48
2018-02-22T02:02:31.352Z,51.58
2018-02-22T02:04:57.550Z,52.16
2018-02-22T02:07:23.718Z,52.31
2018-02-22T02:09:49.942Z,52.49
2018-02-22T02:12:16.114Z,52.46
2018-02-22T02:14:42.281Z,52.43
2018-02-22T02:17:08.511Z,52.37
2018-02-22T02:19:34.690Z,52.36
2018-02-22T02:22:00.900Z,52.39
2018-02-22T02:24:27.121Z,52.33
2018-02-22T02:26:53.347Z,52.32
2018-02-22T02:29:20.362Z,52.34
2018-02-22T02:31:46.525Z,52.23
2018-02-22T02:34:12.933Z,52.20
2018-02-22T02:36:39.115Z,52.25
2018-02-22T02:39:05.362Z,52.24
2018-02-22T02:41:31.578Z,52.14
2018-02-22T02:43:57.739Z,52.21
2018-02-22T02:46:23.920Z,52.24
2018-02-22T02:48:50.126Z,52.19
2018-02-22T02:51:16.634Z,52.22
2018-02-22T02:53:43.038Z,52.27
2018-02-22T02:56:09.215Z,52.50
2018-02-22T02:58:35.374Z,52.11
2018-02-22T03:01:01.852Z,51.81
2018-02-22T03:03:28.016Z,51.75
2018-02-22T03:05:54.289Z,51.79
2018-02-22T03:08:20.486Z,51.83
2018-02-22T03:10:46.967Z,51.63
2018-02-22T03:13:13.194Z,51.64
2018-02-22T03:15:39.361Z,51.56
2018-02-22T03:18:05.529Z,51.45
2018-02-22T03:20:32.090Z,51.39
2018-02-22T03:22:58.496Z,51.47
2018-02-22T03:25:24.769Z,51.67
2018-02-22T03:27:50.925Z,51.65
2018-02-22T03:30:17.075Z,51.58
2018-02-22T03:32:50.127Z,51.61
2018-02-22T03:35:16.284Z,51.41
2018-02-22T03:37:42.498Z,51.38
2018-02-22T03:40:08.674Z,51.35
2018-02-22T03:42:35.104Z,51.30
2018-02-22T03:45:01.321Z,51.36
2018-02-22T03:47:27.473Z,51.33
2018-02-22T03:49:53.892Z,51.29
2018-02-22T03:52:20.080Z,51.54
2018-02-22T03:54:46.239Z,51.61
2018-02-22T03:57:12.421Z,51.47
2018-02-22T03:59:38.834Z,51.51
2018-02-22T04:02:05.035Z,51.41
2018-02-22T04:04:31.203Z,51.17
2018-02-22T04:06:57.410Z,51.30
2018-02-22T04:09:23.570Z,51.34
2018-02-22T04:11:49.734Z,51.33
2018-02-22T04:14:15.957Z,51.22
2018-02-22T04:16:42.102Z,51.34
2018-02-22T04:19:08.314Z,51.28
2018-02-22T04:21:34.564Z,51.34
2018-02-22T04:24:00.728Z,51.30
2018-02-22T04:26:26.924Z,51.35
2018-02-22T04:28:53.108Z,51.33
2018-02-22T04:31:19.311Z,51.31
2018-02-22T04:33:45.473Z,51.40
2018-02-22T04:36:11.700Z,51.31
2018-02-22T04:38:37.850Z,51.40
2018-02-22T04:41:04.014Z,51.42
2018-02-22T04:43:30.209Z,51.03
2018-02-22T04:45:56.397Z,50.96
2018-02-22T04:48:22.599Z,51.41
2018-02-22T04:50:48.814Z,51.39
2018-02-22T04:53:14.989Z,51.35
2018-02-22T04:55:41.153Z,51.40
2018-02-22T04:58:07.353Z,51.33
2018-02-22T05:00:33.537Z,51.24
2018-02-22T05:02:59.746Z,51.20
2018-02-22T05:05:26.167Z,51.10
2018-02-22T05:07:52.342Z,51.11
2018-02-22T05:10:18.621Z,51.10
2018-02-22T05:12:44.802Z,51.12
2018-02-22T05:15:10.961Z,51.05
2018-02-22T05:17:37.310Z,51.04
2018-02-22T05:20:03.478Z,51.30
2018-02-22T05:22:29.642Z,51.13
2018-02-22T05:24:55.903Z,51.09
2018-02-22T05:27:22.092Z,51.30
2018-02-22T05:32:21.110Z,50.84
2018-02-22T05:34:47.388Z,50.74
2018-02-22T05:37:13.553Z,50.63
2018-02-22T05:39:39.885Z,50.56
2018-02-22T05:42:06.059Z,50.81
2018-02-22T05:44:32.212Z,50.72
2018-02-22T05:46:58.401Z,50.57
2018-02-22T05:49:24.704Z,50.50
2018-02-22T05:51:50.901Z,50.50
2018-02-22T05:54:17.084Z,50.60
2018-02-22T05:56:43.598Z,50.37
2018-02-22T05:59:09.771Z,50.22
2018-02-22T06:01:35.976Z,50.10
2018-02-22T06:04:02.596Z,50.10
2018-02-22T06:06:28.828Z,50.11
2018-02-22T06:08:55.077Z,50.19
2018-02-22T06:11:21.274Z,50.18
2018-02-22T06:13:47.517Z,50.17
2018-02-22T06:16:13.754Z,50.97
2018-02-22T06:18:39.960Z,50.90
2018-02-22T06:21:06.157Z,51.18
2018-02-22T06:23:32.376Z,51.30
2018-02-22T06:25:58.590Z,51.41
2018-02-22T06:28:24.765Z,51.49
2018-02-22T06:30:50.989Z,51.54
2018-02-22T06:33:17.223Z,51.60
2018-02-22T06:35:43.408Z,51.61
2018-02-22T06:38:09.689Z,51.65
2018-02-22T06:40:35.924Z,51.77
2018-02-22T06:43:02.050Z,51.58
2018-02-22T06:45:28.229Z,51.57
2018-02-22T06:47:54.697Z,51.42
2018-02-22T06:50:20.907Z,51.24
2018-02-22T06:52:47.159Z,51.17
2018-02-22T06:55:13.416Z,51.24
2018-02-22T06:57:39.610Z,50.81
2018-02-22T07:00:12.186Z,50.71
2018-02-22T07:02:38.412Z,50.71
2018-02-22T07:05:04.572Z,50.85
2018-02-22T07:07:30.758Z,50.83
2018-02-22T07:09:56.951Z,50.79
2018-02-22T07:12:23.225Z,51.01
2018-02-22T07:14:49.437Z,51.12
2018-02-22T07:17:15.691Z,50.91
2018-02-22T07:19:41.889Z,50.50
2018-02-22T07:22:08.095Z,50.42
2018-02-22T07:24:34.325Z,50.41
2018-02-22T07:27:00.570Z,50.46
2018-02-22T07:29:26.761Z,50.42
2018-02-22T07:31:52.968Z,50.37
2018-02-22T07:34:19.236Z,50.26
2018-02-22T07:36:45.709Z,50.29
2018-02-22T07:39:11.956Z,50.25
2018-02-22T07:41:38.177Z,50.17
2018-02-22T07:44:04.366Z,50.09
2018-02-22T07:46:30.575Z,50.01
2018-02-22T07:48:56.750Z,49.93
2018-02-22T07:51:22.984Z,49.94
2018-02-22T07:53:49.236Z,49.89
2018-02-22T07:56:15.425Z,49.88
2018-02-22T07:58:41.596Z,49.77
2018-02-22T08:01:07.783Z,49.76
2018-02-22T08:03:33.950Z,49.69
2018-02-22T08:06:00.138Z,49.68
2018-02-22T08:08:26.368Z,49.63
2018-02-22T08:10:52.578Z,49.57
2018-02-22T08:13:18.804Z,49.63
2018-02-22T08:15:45.011Z,49.63
2018-02-22T08:18:11.219Z,49.57
2018-02-22T08:20:37.405Z,49.50
2018-02-22T08:23:03.636Z,49.44
2018-02-22T08:25:29.854Z,49.43
2018-02-22T08:27:56.089Z,49.38
2018-02-22T08:30:22.300Z,49.33
2018-02-22T08:32:48.491Z,49.28
2018-02-22T08:35:14.654Z,49.42
2018-02-22T08:37:40.886Z,49.13
2018-02-22T08:40:07.057Z,49.05
2018-02-22T08:42:33.312Z,49.05
2018-02-22T08:44:59.500Z,49.07
2018-02-22T08:47:25.749Z,49.05
2018-02-22T08:49:51.933Z,49.07
2018-02-22T08:52:18.114Z,49.04
2018-02-22T08:54:44.317Z,49.01
2018-02-22T08:57:10.574Z,48.99
2018-02-22T08:59:36.806Z,48.97
2018-02-22T09:02:03.005Z,48.95
2018-02-22T09:04:29.181Z,48.92
2018-02-22T09:06:55.397Z,48.89
2018-02-22T09:09:21.628Z,48.86
2018-02-22T09:11:47.814Z,48.81
2018-02-22T09:14:14.054Z,48.77
2018-02-22T09:16:40.656Z,48.72
2018-02-22T09:19:06.907Z,48.67
2018-02-22T09:21:33.186Z,48.62
2018-02-22T09:23:59.366Z,48.63
2018-02-22T09:26:25.622Z,48.61
2018-02-22T09:28:51.829Z,48.60
2018-02-22T09:31:18.016Z,48.59
2018-02-22T09:33:44.250Z,48.47
2018-02-22T09:36:10.677Z,48.47
2018-02-22T09:38:36.905Z,48.43
2018-02-22T09:41:03.089Z,48.32
2018-02-22T09:43:29.285Z,48.26
2018-02-22T09:45:55.477Z,48.23
2018-02-22T09:48:21.709Z,48.11
2018-02-22T09:50:47.889Z,47.93
2018-02-22T09:53:14.072Z,47.97
2018-02-22T09:55:40.310Z,47.97
2018-02-22T09:58:06.483Z,47.99
2018-02-22T10:00:33.692Z,48.00
2018-02-22T10:02:59.894Z,48.10
2018-02-22T10:05:26.144Z,48.03
2018-02-22T10:07:52.386Z,47.99
2018-02-22T10:10:18.587Z,47.91
2018-02-22T10:12:45.160Z,47.87
2018-02-22T10:15:11.396Z,47.87
2018-02-22T10:17:37.651Z,47.84
2018-02-22T10:20:04.117Z,47.77
2018-02-22T10:22:30.548Z,47.66
2018-02-22T10:24:56.759Z,47.60
2018-02-22T10:27:22.962Z,47.63
2018-02-22T10:29:49.207Z,47.67
2018-02-22T10:32:15.608Z,47.69
2018-02-22T10:34:41.773Z,47.67
2018-02-22T10:37:08.335Z,47.64
2018-02-22T10:39:34.575Z,47.59
2018-02-22T10:42:01.011Z,47.58
2018-02-22T10:44:27.178Z,47.57
2018-02-22T10:46:53.409Z,47.43
2018-02-22T10:49:19.622Z,47.39
2018-02-22T10:51:45.815Z,47.44
2018-02-22T10:54:12.339Z,47.43
2018-02-22T10:56:38.558Z,47.47
2018-02-22T11:01:42.965Z,47.46
2018-02-22T11:04:09.435Z,47.49
2018-02-22T11:06:35.876Z,47.50
2018-02-22T11:09:02.204Z,47.47
2018-02-22T11:11:28.417Z,47.64
2018-02-22T11:13:54.601Z,47.75
2018-02-22T11:16:21.095Z,47.89
2018-02-22T11:18:47.298Z,47.90
2018-02-22T11:21:13.471Z,47.90
2018-02-22T11:23:39.780Z,47.73
2018-02-22T11:26:05.972Z,47.94
2018-02-22T11:28:32.145Z,48.28
2018-02-22T11:30:58.453Z,48.23
2018-02-22T11:33:24.680Z,48.26
2018-02-22T11:35:50.846Z,48.26
2018-02-22T11:38:17.377Z,48.23
2018-02-22T11:40:43.583Z,48.24
2018-02-22T11:43:09.745Z,48.27
2018-02-22T11:45:35.968Z,48.49
2018-02-22T11:48:02.143Z,48.09
2018-02-22T11:50:28.388Z,47.57
2018-02-22T11:52:54.631Z,47.44
2018-02-22T11:55:20.792Z,47.47
2018-02-22T11:57:46.941Z,47.46
2018-02-22T12:00:13.168Z,47.75
2018-02-22T12:02:39.447Z,47.77
2018-02-22T12:05:05.746Z,47.65
2018-02-22T12:07:31.965Z,47.36
2018-02-22T12:09:58.134Z,47.54
2018-02-22T12:12:24.516Z,47.57
2018-02-22T12:14:50.975Z,47.23
2018-02-22T12:17:17.170Z,47.24
2018-02-22T12:19:43.408Z,47.30
2018-02-22T12:22:09.859Z,47.00
2018-02-22T12:24:36.079Z,47.33
2018-02-22T12:27:02.249Z,47.79
2018-02-22T12:29:28.460Z,47.97
2018-02-22T12:31:54.709Z,47.96
2018-02-22T12:34:20.887Z,47.95
2018-02-22T12:36:47.091Z,47.91
2018-02-22T12:39:13.303Z,47.94
2018-02-22T12:41:39.501Z,47.93
2018-02-22T12:44:05.753Z,47.94
2018-02-22T12:46:31.932Z,47.97
2018-02-22T12:48:58.206Z,47.86
2018-02-22T12:51:24.793Z,47.74
2018-02-22T12:53:51.307Z,47.70
2018-02-22T12:56:17.929Z,47.64
2018-02-22T12:58:44.260Z,47.64
2018-02-22T13:01:10.440Z,47.67
2018-02-22T13:03:36.661Z,47.69
2018-02-22T13:06:02.932Z,47.71
2018-02-22T13:08:29.133Z,47.66
2018-02-22T13:10:55.804Z,47.63
2018-02-22T13:13:22.038Z,47.68
2018-02-22T13:15:48.215Z,47.64
2018-02-22T13:18:14.446Z,47.64
2018-02-22T13:20:40.660Z,47.65
2018-02-22T13:23:06.847Z,47.68
2018-02-22T13:25:33.334Z,47.64
2018-02-22T13:27:59.544Z,47.65
2018-02-22T13:30:25.744Z,47.82
2018-02-22T13:33:03.944Z,47.80
2018-02-22T13:35:30.142Z,47.87
2018-02-22T13:38:17.565Z,47.86
2018-02-22T13:40:43.757Z,47.90
2018-02-22T13:43:09.918Z,47.87
2018-02-22T13:45:36.541Z,47.83
2018-02-22T13:48:03.079Z,47.80
2018-02-22T13:50:41.681Z,47.75
2018-02-22T13:53:07.899Z,47.66
2018-02-22T13:55:34.091Z,47.62
2018-02-22T13:58:00.291Z,47.60
2018-02-22T14:00:38.611Z,47.56
2018-02-22T14:03:04.848Z,47.66
2018-02-22T14:05:31.100Z,47.64
2018-02-22T14:07:57.313Z,47.72
2018-02-22T14:10:23.541Z,47.79
2018-02-22T14:12:49.786Z,47.87
2018-02-22T14:15:15.980Z,47.95
2018-02-22T14:17:42.494Z,47.95
2018-02-22T14:20:08.723Z,48.04
2018-02-22T14:22:34.936Z,48.06
2018-02-22T14:25:01.145Z,48.06
2018-02-22T14:27:27.346Z,48.06
2018-02-22T14:29:53.565Z,48.07
2018-02-22T14:32:19.749Z,48.11
2018-02-22T14:34:46.025Z,48.12
2018-02-22T14:37:12.230Z,48.10
2018-02-22T14:39:38.418Z,48.07
2018-02-22T14:42:04.977Z,48.06
2018-02-22T14:44:31.193Z,48.04
2018-02-22T14:46:57.400Z,48.00
2018-02-22T14:49:23.662Z,48.01
2018-02-22T14:51:50.089Z,48.03
2018-02-22T14:54:16.289Z,48.01
2018-02-22T14:56:42.523Z,47.85
2018-02-22T14:59:08.721Z,47.81
2018-02-22T15:01:34.926Z,47.85
2018-02-22T15:04:01.118Z,47.89
2018-02-22T15:06:27.365Z,47.86
2018-02-22T15:09:00.496Z,47.81
2018-02-22T15:11:26.819Z,47.75
2018-02-22T15:13:53.033Z,47.78
2018-02-22T15:16:19.549Z,47.85
2018-02-22T15:18:45.747Z,47.81
2018-02-22T15:21:11.943Z,47.77
2018-02-22T15:23:38.155Z,47.79
2018-02-22T15:26:04.343Z,47.77
2018-02-22T15:28:30.525Z,47.72
2018-02-22T15:30:57.020Z,47.67
2018-02-22T15:33:23.254Z,47.65
2018-02-22T15:35:49.458Z,47.63
2018-02-22T15:38:15.711Z,47.64
2018-02-22T15:40:41.878Z,47.70
2018-02-22T15:43:08.107Z,47.74
2018-02-22T15:45:34.371Z,47.78
2018-02-22T15:48:00.562Z,47.73
2018-02-22T15:50:26.822Z,47.70
2018-02-22T15:52:53.021Z,47.67
2018-02-22T15:55:19.278Z,47.71
2018-02-22T15:57:45.453Z,47.67
2018-02-22T16:00:11.670Z,47.67
2018-02-22T16:02:37.990Z,47.59
2018-02-22T16:05:04.478Z,47.60
2018-02-22T16:07:30.661Z,47.62
2018-02-22T16:09:56.900Z,47.65
2018-02-22T16:12:23.151Z,47.67
2018-02-22T16:14:49.351Z,47.71
2018-02-22T16:17:15.592Z,47.71
2018-02-22T16:19:41.810Z,47.72
2018-02-22T16:22:08.008Z,47.75
2018-02-22T16:24:34.184Z,47.82
2018-02-22T16:27:00.440Z,47.85
2018-02-22T16:29:26.622Z,47.94
2018-02-22T16:31:52.806Z,47.99
2018-02-22T16:34:19.080Z,48.00
2018-02-22T16:36:45.326Z,48.08
2018-02-22T16:39:11.529Z,48.08
2018-02-22T16:41:37.696Z,48.06
2018-02-22T16:44:03.929Z,48.07
2018-02-22T16:46:30.372Z,48.08
2018-02-22T16:48:56.688Z,48.11
2018-02-22T16:51:22.944Z,48.06
2018-02-22T16:53:49.240Z,48.01
2018-02-22T16:56:15.493Z,48.00
2018-02-22T16:58:42.046Z,47.99
2018-02-22T17:01:08.206Z,47.99
2018-02-22T17:03:34.410Z,48.00
2018-02-22T17:06:00.666Z,47.97
2018-02-22T17:08:26.939Z,47.97
2018-02-22T17:10:53.129Z,48.01
2018-02-22T17:13:19.360Z,47.94
2018-02-22T17:15:45.559Z,47.91
2018-02-22T17:18:11.762Z,47.95
2018-02-22T17:20:37.997Z,48.05
2018-02-22T17:23:04.224Z,48.06
2018-02-22T17:25:30.288Z,48.06
2018-02-22T17:28:02.552Z,48.01
2018-02-22T17:30:34.852Z,48.05
2018-02-22T17:33:01.034Z,48.05
2018-02-22T17:35:31.157Z,48.01
2018-02-22T17:37:57.415Z,48.05
2018-02-22T17:40:25.703Z,48.15
2018-02-22T17:42:51.961Z,48.19
2018-02-22T17:45:18.206Z,48.16
2018-02-22T17:47:44.462Z,48.22
2018-02-22T17:50:10.694Z,48.12
2018-02-22T17:52:36.897Z,48.09
2018-02-22T17:55:03.230Z,48.02
2018-02-22T17:57:29.428Z,47.98
2018-02-22T17:59:55.735Z,48.00
2018-02-22T18:02:22.025Z,47.96
2018-02-22T18:04:48.313Z,47.96
2018-02-22T18:07:14.875Z,47.98
2018-02-22T18:09:41.233Z,47.96
2018-02-22T18:12:07.430Z,47.85
2018-02-22T18:14:33.693Z,48.02
2018-02-22T18:16:59.945Z,48.00
2018-02-22T18:19:26.125Z,48.22
2018-02-22T18:21:52.381Z,48.18
2018-02-22T18:24:18.644Z,48.31
2018-02-22T18:26:44.828Z,48.33
2018-02-22T18:29:11.121Z,48.40
2018-02-22T18:31:37.552Z,48.38
2018-02-22T18:34:03.782Z,48.42
2018-02-22T18:36:31.062Z,48.57
2018-02-22T18:39:03.486Z,48.68
2018-02-22T18:41:35.688Z,48.76
2018-02-22T18:47:07.274Z,49.03
2018-02-22T18:49:33.662Z,49.14
2018-02-22T18:52:00.130Z,49.16
2018-02-22T18:54:26.371Z,49.13
2018-02-22T18:56:52.568Z,48.98
2018-02-22T18:59:18.774Z,49.05
2018-02-22T19:01:45.015Z,48.98
2018-02-22T19:04:11.578Z,48.97
2018-02-22T19:06:37.760Z,48.78
2018-02-22T19:09:04.244Z,48.86
2018-02-22T19:11:30.562Z,48.74
2018-02-22T19:13:56.754Z,48.61
2018-02-22T19:16:22.926Z,49.08
2018-02-22T19:18:49.146Z,49.25
2018-02-22T19:21:15.574Z,49.21
2018-02-22T19:23:41.830Z,49.33
2018-02-22T19:26:08.022Z,49.02
2018-02-22T19:28:34.566Z,48.93
2018-02-22T19:31:00.786Z,49.04
2018-02-22T19:33:26.959Z,48.92
2018-02-22T19:35:53.237Z,48.91
2018-02-22T19:38:19.518Z,48.89
2018-02-22T19:40:45.759Z,49.14
2018-02-22T19:43:12.014Z,49.32
2018-02-22T19:45:38.205Z,49.59
2018-02-22T19:48:04.381Z,49.26
2018-02-22T19:50:30.630Z,49.20
2018-02-22T19:52:56.815Z,49.20
2018-02-22T19:55:22.990Z,49.18
2018-02-22T19:57:49.213Z,49.43
2018-02-22T20:00:15.445Z,49.49
2018-02-22T20:02:41.677Z,49.33
2018-02-22T20:05:07.890Z,49.22
2018-02-22T20:07:34.063Z,49.18
2018-02-22T20:10:00.234Z,49.25
2018-02-22T20:12:26.774Z,49.17
2018-02-22T20:14:52.941Z,49.20
2018-02-22T20:17:19.139Z,49.37
2018-02-22T20:19:45.393Z,49.26
2018-02-22T20:22:11.589Z,49.25
2018-02-22T20:24:37.781Z,49.41
2018-02-22T20:27:04.000Z,49.42
2018-02-22T20:29:30.183Z,49.36
2018-02-22T20:31:56.379Z,49.48
2018-02-22T20:34:22.536Z,49.48
2018-02-22T20:36:48.780Z,49.40
2018-02-22T20:39:14.955Z,49.36
2018-02-22T20:41:41.179Z,49.36
2018-02-22T20:44:07.460Z,49.47
2018-02-22T20:46:33.672Z,49.43
2018-02-22T20:48:59.865Z,49.46
2018-02-22T20:54:20.154Z,49.49
2018-02-22T20:56:46.368Z,49.37
2018-02-22T20:59:12.653Z,49.47
2018-02-22T21:01:38.877Z,49.54
2018-02-22T21:04:10.955Z,49.45
2018-02-22T21:06:37.222Z,49.39
2018-02-22T21:09:03.577Z,49.82
2018-02-22T21:11:29.876Z,49.82
2018-02-22T21:13:56.109Z,49.70
2018-02-22T21:16:22.288Z,49.61
2018-02-22T21:18:48.485Z,49.51
2018-02-22T21:21:14.650Z,49.51
2018-02-22T21:23:40.871Z,49.43
2018-02-22T21:26:07.029Z,49.49
2018-02-22T21:28:33.283Z,49.67
2018-02-22T21:30:59.490Z,49.90
2018-02-22T21:33:25.991Z,50.21
2018-02-22T21:35:52.247Z,50.41
2018-02-22T21:38:18.658Z,50.30
2018-02-22T21:40:44.838Z,50.40
2018-02-22T21:43:11.051Z,50.42
2018-02-22T21:45:37.234Z,50.51
2018-02-22T21:48:03.498Z,50.31
2018-02-22T21:50:29.723Z,50.20
2018-02-22T21:52:56.231Z,50.12
2018-02-22T21:55:22.457Z,50.39
2018-02-22T21:57:48.615Z,50.39
2018-02-22T22:00:14.783Z,50.43
2018-02-22T22:02:41.349Z,50.58
2018-02-22T22:05:07.526Z,50.49
2018-02-22T22:07:33.698Z,50.33
2018-02-22T22:09:59.907Z,50.17
2018-02-22T22:12:26.107Z,50.11
2018-02-22T22:14:52.329Z,50.01
2018-02-22T22:17:18.602Z,49.93
2018-02-22T22:19:44.901Z,50.08
2018-02-22T22:22:11.349Z,49.95
2018-02-22T22:24:37.526Z,50.08
2018-02-22T22:27:03.753Z,49.96
2018-02-22T22:29:29.920Z,49.90
2018-02-22T22:31:56.200Z,49.95
2018-02-22T22:34:22.376Z,49.88
2018-02-22T22:36:48.631Z,49.99
2018-02-22T22:39:14.816Z,49.96
2018-02-22T22:41:40.988Z,50.00
2018-02-22T22:44:07.237Z,50.09
2018-02-22T22:46:33.458Z,50.13
2018-02-22T22:48:59.618Z,49.93
2018-02-22T22:51:25.884Z,50.07
2018-02-22T22:53:52.062Z,50.68
2018-02-22T22:56:18.224Z,51.16
2018-02-22T22:58:44.416Z,51.32
2018-02-22T23:01:10.631Z,51.33
2018-02-22T23:03:36.793Z,51.08
2018-02-22T23:06:02.984Z,51.19
2018-02-22T23:08:29.194Z,51.34
2018-02-22T23:10:55.386Z,51.28
2018-02-22T23:13:21.632Z,51.73
2018-02-22T23:15:48.070Z,51.15
2018-02-22T23:18:14.287Z,50.57
2018-02-22T23:20:40.477Z,50.99
2018-02-22T23:23:06.676Z,51.22
2018-02-22T23:25:32.832Z,51.47
2018-02-22T23:27:59.320Z,50.91
2018-02-22T23:30:25.492Z,50.59
2018-02-22T23:32:51.682Z,50.51
2018-02-22T23:35:17.964Z,50.50
2018-02-22T23:37:44.258Z,50.63
2018-02-22T23:40:14.584Z,50.59
2018-02-22T23:42:40.827Z,50.61
2018-02-22T23:45:07.021Z,50.61
2018-02-22T23:47:33.249Z,50.81
2018-02-22T23:49:59.518Z,50.95
2018-02-22T23:52:25.707Z,51.16
2018-02-22T23:54:51.977Z,51.24
2018-02-22T23:57:18.429Z,51.47
2018-02-22T23:59:44.616Z,51.48
